Main page
METAR-TAF:

METAR-TAF

Airports :

Abha Regional Airport

Abha, Saudi Arabia

latitude: 18-14N, longitude: 042-39E, elevation: 2090 m

Current weather observation

The report was made 1 hour and 6 minutes ago, at 19:00 UTC
Wind 10 kt from the South
Temperature 11°C
Humidity 82%
Pressure 1026 hPa
Visibility 10 km or more
no clouds below 1500 m and no cumulonimbus

METAR: OEAB 221900Z 18010KT CAVOK 11/08 Q1026 NOSIG

Time: 23:06 (20:06 UTC)

Forecast

The report was made 9 hours and 6 minutes ago, at 11:00 UTC
Forecast valid from 22 at 12 UTC to 23 at 18 UTC
Wind 15 kt from the South/Southwest
Visibility 10 km or more
Few clouds at a height of 2000 ft
Becoming
from 23 at 08 UTC to 23 at 10 UTC
Wind 5 kt from the South/Southwest

TAF: OEAB 221100Z 2212/2318 21015KT 9999 FEW020 BECMG 2308/2310 20005KT

Weather observations and forecasts of more than 4000 airports (METAR and TAF reports).

The available stations are represented by yellow and red dots on the map.

Hover mouse over dot to see the name of the station.

Then click to see weather observations and forecasts.

To change the map : click on the green buttons with a black cross to zoom in, on the green button with a dash to zoom out, or on the green arrows for adjacent maps.


METAR-TAF: